Kimberling City, Missouri
Current Conditions -  °F | °C
As of 11:55 AM on Friday 31 Oct 2014 (Local Time) from KFWB Reporting Station
Scattered Clouds Scattered Clouds  
Wind Chill: 41°   Ceiling: Unl
Heat Index: 46°   Visibility: 10mi
Dew Point: 32°   Wind: 12mph
Humidity: 57%   Direction: 320°NW
Pressure: 30.35"   Gusts: 22mph
Location:  36.63°N, 93.42°W
Report Text: KFWB 311655Z AUTO 32010G19KT 10SM SCT028 08/00 A3035 RMK AO2
Loading
Personal Weather Stations






























Interactive Weather Map
Tropical Storm Tracking
New forecast layout! Learn more

10-Day Weather Forecast

Advertisements
Track Severe Weather on mobile